INFORMACIÓN METAR y TAF
METAR FOR LELL
ADDS - METARS form results

(0036 UTC 26 April 2019)
Data provider http://aviationweather.gov/metar/data/
 
METAR text: LELL 260030Z AUTO 27006KT 9999 NCD 11/06 Q1015
Conditions at: LELL (SABADELL , ES) observed 0030 UTC 26 April 2019
Temperature: 11.0°C (52°F)
Dewpoint: 6.0°C (43°F) [RH = 71%]
Pressure (altimeter): 29.97 inches Hg (1015.0 mb)
Winds: from the W (270 degrees) at 7 MPH (6 knots; 3.1 m/s)
Visibility: 6 or more miles (10+ km)
Ceiling: at least 12,000 feet AGL
Clouds: sky clear below 12,000 feet AGL
Weather: no significant weather observed at this time

METAR text: LELL 260000Z AUTO 28006KT 260V320 9999 NCD 11/06 Q1014
Conditions at: LELL (SABADELL , ES) observed 0000 UTC 26 April 2019
Temperature: 11.0°C (52°F)
Dewpoint: 6.0°C (43°F) [RH = 71%]
Pressure (altimeter): 29.94 inches Hg (1014.0 mb)
Winds: from the W (280 degrees) at 7 MPH (6 knots; 3.1 m/s)
Visibility: 6 or more miles (10+ km)
Ceiling: at least 12,000 feet AGL
Clouds: sky clear below 12,000 feet AGL
Weather: no significant weather observed at this time

Forecast for: LELL (SABADELL , ES)
Text: TAF LELL 251400Z 2515/2615 29010KT 9999 SCT015 TX23/2613Z TN09/2606Z
Forecast period: 1500 UTC 25 April 2019 to 1500 UTC 26 April 2019
Forecast type: FROM: standard forecast or significant change
Winds: from the WNW (290 degrees) at 12 MPH (10 knots; 5.1 m/s)
Visibility: 6 or more miles 10+ km)
Ceiling: at least 12,000 feet AGL
Clouds: scattered clouds at 1500 feet AGL
Weather: no significant weather forecast for this period
Text: TEMPO 2515/2518 23008KT
Forecast period: 1500 to 1800 UTC 25 April 2019
Forecast type: TEMPORARY: The following changes expected for less than half the time period
Winds: from the SW (230 degrees) at 9 MPH (8 knots; 4.1 m/s)
Visibility: missing
Ceiling: unknown
Clouds: missing
Weather: no significant weather forecast for this period
Text: TEMPO 2602/2615 29012G25KT
Forecast period: 0200 to 1500 UTC 26 April 2019
Forecast type: TEMPORARY: The following changes expected for less than half the time period
Winds: from the WNW (290 degrees) at 14 MPH (12 knots; 6.2 m/s)
gusting to 29 MPH (25 knots; 12.9 m/s)
Visibility: missing
Ceiling: unknown
Clouds: missing
Weather: no significant weather forecast for this period

 MAPA DE AEROPUERTO

 INFORMACIÓN DE PISTA
Pista 13 Longitud 2953 ft Ancho 0 ft
Elevación 485 ft Umbral desplazado 0 ft Rumbo de pista 0
Pista 31 Longitud 2953 ft Ancho 0 ft
Elevación 445 ft Umbral desplazado 0 ft Rumbo de pista 0

 FRECUANCIAS DEL AEROPUERTO

 RADIO AYUDAS DEL AEROPUERTO
Tipo NDB Nombre Sabadell Frecuencia 367 KHZ



Powered by Virtual Airlines Manager [v2.6.2]